Onde está Casais do Ourego en Portugal?

Casais do Ourego está situado na região Santarem em Portugal!

Buscar o nome de uma cidade:

Casale, Casa del Marqués, Casas de San Isidro, Casa de los Marín Ponce de León, Casapampa

Aqui você vai encontrar a localização de Casais do Ourego em um mapa.
Para ver como ele atualmente parece, abaixo estão algumas fotos da região, com webcams online.
Você também pode encontrar a distância para as principais cidades da região e de cidades do resto do Portugal.

Todos os lugares do mundo chamado .

new

Onde está Casais do Ourego no mapa?


Webcams perto Casais do Ourego

Vasco Carão > South: Garrocheira, Benavente - Airport.


Vasco Carão > South: Garrocheira, Benavente - Airport - Dia
Actual
Vasco Carão > South: Garrocheira, Benavente - Airport - Actual

Caldas da Rainha.


Caldas da Rainha - Dia
Actual
Caldas da Rainha - Actual

Benavente > North-East: AIrport, METAR: BENAV 180005Z 36004KT 17/14 Q1015.


Benavente > North-East: AIrport, METAR: BENAV 180005Z 36004KT 17/14 Q1015 - Dia
Actual
Benavente > North-East: AIrport, METAR: BENAV 180005Z 36004KT 17/14 Q1015 - Actual

Webcams provided by webcams.travel

Distâncias

Onde está Casais do Ourego em relação a outros lugares?

Top 10 cidades em Santarem e distância de Casais do Ourego.

Cidade#Populaçãokmmilhas
Santarém129385106
Entroncamento2198873421
Tomar3191684830
Torres Novas4145263119
Samora Correia5141543924
Abrantes6136465534
Ourém7127294327
Rio Maior8120641610
Fátima9117984025
Almeirim10115561610

Top 10 cidades em Portugal e distância de Casais do Ourego.

Cidade # Populaçãokmmilhas
Lisbon15177986943
Porto2249630209130
Amadora31788566943
Braga4121393254158
Setúbal51171098452
Coimbra610658010867
Queluz71033987144
Funchal8980411038645
Vila Nova de Gaia970810208129
Loures10662306037